sensor_id;sensor_type;location;lat;lon;timestamp;temperature;humidity
4312;DHT22;2169;49.086;9.284;2023-01-16T00:01:15;4.50;65.40
4312;DHT22;2169;49.086;9.284;2023-01-16T00:03:41;4.50;65.40
4312;DHT22;2169;49.086;9.284;2023-01-16T00:06:08;4.50;65.20
4312;DHT22;2169;49.086;9.284;2023-01-16T00:08:35;4.50;65.20
4312;DHT22;2169;49.086;9.284;2023-01-16T00:11:03;4.50;65.20
4312;DHT22;2169;49.086;9.284;2023-01-16T00:13:30;4.50;65.20
4312;DHT22;2169;49.086;9.284;2023-01-16T00:15:57;4.50;65.20
4312;DHT22;2169;49.086;9.284;2023-01-16T00:18:24;4.50;65.20
4312;DHT22;2169;49.086;9.284;2023-01-16T00:20:50;4.50;65.10
4312;DHT22;2169;49.086;9.284;2023-01-16T00:23:17;4.60;65.10
4312;DHT22;2169;49.086;9.284;2023-01-16T00:25:44;4.60;65.80
4312;DHT22;2169;49.086;9.284;2023-01-16T00:28:13;4.60;65.00
4312;DHT22;2169;49.086;9.284;2023-01-16T00:30:40;4.60;65.00
4312;DHT22;2169;49.086;9.284;2023-01-16T00:33:09;4.60;65.00
4312;DHT22;2169;49.086;9.284;2023-01-16T00:35:36;4.60;64.90
4312;DHT22;2169;49.086;9.284;2023-01-16T00:38:02;4.60;64.90
4312;DHT22;2169;49.086;9.284;2023-01-16T00:40:29;4.70;64.90
4312;DHT22;2169;49.086;9.284;2023-01-16T00:42:56;4.70;64.90
4312;DHT22;2169;49.086;9.284;2023-01-16T00:45:24;4.70;64.70
4312;DHT22;2169;49.086;9.284;2023-01-16T00:47:51;4.70;64.70
4312;DHT22;2169;49.086;9.284;2023-01-16T00:50:18;4.70;64.70
4312;DHT22;2169;49.086;9.284;2023-01-16T00:52:45;4.70;64.70
4312;DHT22;2169;49.086;9.284;2023-01-16T00:55:11;4.70;64.70
4312;DHT22;2169;49.086;9.284;2023-01-16T00:57:38;4.70;64.60
4312;DHT22;2169;49.086;9.284;2023-01-16T01:00:06;4.70;64.60
4312;DHT22;2169;49.086;9.284;2023-01-16T01:02:34;4.70;64.50
4312;DHT22;2169;49.086;9.284;2023-01-16T01:05:01;4.70;64.50
4312;DHT22;2169;49.086;9.284;2023-01-16T01:07:27;4.70;64.40
4312;DHT22;2169;49.086;9.284;2023-01-16T01:09:54;4.70;64.40
4312;DHT22;2169;49.086;9.284;2023-01-16T01:12:21;4.70;64.30
4312;DHT22;2169;49.086;9.284;2023-01-16T01:14:48;4.70;64.30
4312;DHT22;2169;49.086;9.284;2023-01-16T01:17:14;4.70;64.30
4312;DHT22;2169;49.086;9.284;2023-01-16T01:19:42;4.70;64.30
4312;DHT22;2169;49.086;9.284;2023-01-16T01:22:09;4.70;64.30
4312;DHT22;2169;49.086;9.284;2023-01-16T01:24:36;4.70;64.30
4312;DHT22;2169;49.086;9.284;2023-01-16T01:27:03;4.70;64.20
4312;DHT22;2169;49.086;9.284;2023-01-16T01:29:29;4.70;64.10
4312;DHT22;2169;49.086;9.284;2023-01-16T01:31:56;4.70;64.10
4312;DHT22;2169;49.086;9.284;2023-01-16T01:34:23;4.70;64.00
4312;DHT22;2169;49.086;9.284;2023-01-16T01:36:51;4.70;64.00
4312;DHT22;2169;49.086;9.284;2023-01-16T01:39:18;4.80;64.10
4312;DHT22;2169;49.086;9.284;2023-01-16T01:41:45;4.80;64.10
4312;DHT22;2169;49.086;9.284;2023-01-16T01:44:41;4.80;64.00
4312;DHT22;2169;49.086;9.284;2023-01-16T01:47:11;4.80;64.00
4312;DHT22;2169;49.086;9.284;2023-01-16T01:49:38;4.80;64.00
4312;DHT22;2169;49.086;9.284;2023-01-16T01:52:07;4.80;63.90
4312;DHT22;2169;49.086;9.284;2023-01-16T01:54:38;4.80;63.80
4312;DHT22;2169;49.086;9.284;2023-01-16T01:57:08;4.80;63.80
4312;DHT22;2169;49.086;9.284;2023-01-16T01:59:38;4.80;63.80
4312;DHT22;2169;49.086;9.284;2023-01-16T02:02:09;4.80;63.80
4312;DHT22;2169;49.086;9.284;2023-01-16T02:04:39;4.80;63.80
4312;DHT22;2169;49.086;9.284;2023-01-16T02:07:13;4.80;63.70
4312;DHT22;2169;49.086;9.284;2023-01-16T02:09:40;4.80;63.70
4312;DHT22;2169;49.086;9.284;2023-01-16T02:12:09;4.80;63.70
4312;DHT22;2169;49.086;9.284;2023-01-16T02:14:38;4.80;63.70
4312;DHT22;2169;49.086;9.284;2023-01-16T02:17:06;4.80;63.60
4312;DHT22;2169;49.086;9.284;2023-01-16T02:19:57;4.80;63.60
4312;DHT22;2169;49.086;9.284;2023-01-16T02:26:00;4.80;63.50
4312;DHT22;2169;49.086;9.284;2023-01-16T02:31:38;4.80;63.40
4312;DHT22;2169;49.086;9.284;2023-01-16T02:34:19;4.80;63.30
4312;DHT22;2169;49.086;9.284;2023-01-16T02:37:00;4.80;63.90
4312;DHT22;2169;49.086;9.284;2023-01-16T02:39:34;4.70;63.10
4312;DHT22;2169;49.086;9.284;2023-01-16T02:42:09;4.80;63.30
4312;DHT22;2169;49.086;9.284;2023-01-16T02:44:43;4.70;63.10
4312;DHT22;2169;49.086;9.284;2023-01-16T02:47:18;4.70;63.10
4312;DHT22;2169;49.086;9.284;2023-01-16T02:49:50;4.70;63.10
4312;DHT22;2169;49.086;9.284;2023-01-16T02:52:22;4.70;63.10
4312;DHT22;2169;49.086;9.284;2023-01-16T02:54:55;4.70;63.10
4312;DHT22;2169;49.086;9.284;2023-01-16T02:57:27;4.70;63.10
4312;DHT22;2169;49.086;9.284;2023-01-16T02:59:56;4.70;63.10
4312;DHT22;2169;49.086;9.284;2023-01-16T03:02:24;4.60;63.00
4312;DHT22;2169;49.086;9.284;2023-01-16T03:04:52;4.60;62.90
4312;DHT22;2169;49.086;9.284;2023-01-16T03:07:44;4.60;63.00
4312;DHT22;2169;49.086;9.284;2023-01-16T03:10:50;4.60;62.90
4312;DHT22;2169;49.086;9.284;2023-01-16T03:13:29;4.70;63.10
4312;DHT22;2169;49.086;9.284;2023-01-16T03:16:04;4.60;63.00
4312;DHT22;2169;49.086;9.284;2023-01-16T03:18:41;4.60;63.00
4312;DHT22;2169;49.086;9.284;2023-01-16T03:21:17;4.70;63.10
4312;DHT22;2169;49.086;9.284;2023-01-16T03:23:51;4.70;63.00
4312;DHT22;2169;49.086;9.284;2023-01-16T03:26:26;4.70;63.10
4312;DHT22;2169;49.086;9.284;2023-01-16T03:29:01;4.70;63.10
4312;DHT22;2169;49.086;9.284;2023-01-16T03:31:34;4.70;63.10
4312;DHT22;2169;49.086;9.284;2023-01-16T03:34:12;4.70;63.00
4312;DHT22;2169;49.086;9.284;2023-01-16T03:36:45;4.70;63.00
4312;DHT22;2169;49.086;9.284;2023-01-16T03:39:15;4.70;63.00
4312;DHT22;2169;49.086;9.284;2023-01-16T03:41:45;4.70;62.90
4312;DHT22;2169;49.086;9.284;2023-01-16T03:44:17;4.70;62.90
4312;DHT22;2169;49.086;9.284;2023-01-16T03:46:50;4.70;62.90
4312;DHT22;2169;49.086;9.284;2023-01-16T03:49:20;4.70;62.90
4312;DHT22;2169;49.086;9.284;2023-01-16T03:51:51;4.70;62.80
4312;DHT22;2169;49.086;9.284;2023-01-16T03:54:27;4.70;62.80
4312;DHT22;2169;49.086;9.284;2023-01-16T03:56:59;4.70;62.90
4312;DHT22;2169;49.086;9.284;2023-01-16T03:59:30;4.70;62.90
4312;DHT22;2169;49.086;9.284;2023-01-16T04:01:58;4.60;62.80
4312;DHT22;2169;49.086;9.284;2023-01-16T04:04:34;4.70;62.90
4312;DHT22;2169;49.086;9.284;2023-01-16T04:07:06;4.70;62.90
4312;DHT22;2169;49.086;9.284;2023-01-16T04:09:38;4.60;62.80
4312;DHT22;2169;49.086;9.284;2023-01-16T04:12:06;4.70;62.90
4312;DHT22;2169;49.086;9.284;2023-01-16T04:14:34;4.70;62.90
4312;DHT22;2169;49.086;9.284;2023-01-16T04:17:02;4.70;62.80
4312;DHT22;2169;49.086;9.284;2023-01-16T04:19:33;4.70;62.90
4312;DHT22;2169;49.086;9.284;2023-01-16T04:22:05;4.70;62.80
4312;DHT22;2169;49.086;9.284;2023-01-16T04:24:33;4.70;62.80
4312;DHT22;2169;49.086;9.284;2023-01-16T04:27:00;4.70;62.90
4312;DHT22;2169;49.086;9.284;2023-01-16T04:29:27;4.70;62.80
4312;DHT22;2169;49.086;9.284;2023-01-16T04:31:54;4.70;62.90
4312;DHT22;2169;49.086;9.284;2023-01-16T04:34:21;4.70;62.90
4312;DHT22;2169;49.086;9.284;2023-01-16T04:36:49;4.70;62.80
4312;DHT22;2169;49.086;9.284;2023-01-16T04:39:15;4.70;62.80
4312;DHT22;2169;49.086;9.284;2023-01-16T04:41:42;4.70;62.90
4312;DHT22;2169;49.086;9.284;2023-01-16T04:44:12;4.70;62.90
4312;DHT22;2169;49.086;9.284;2023-01-16T04:46:38;4.70;62.90
4312;DHT22;2169;49.086;9.284;2023-01-16T04:49:06;4.70;62.90
4312;DHT22;2169;49.086;9.284;2023-01-16T04:51:32;4.70;62.90
4312;DHT22;2169;49.086;9.284;2023-01-16T04:54:01;4.70;62.90
4312;DHT22;2169;49.086;9.284;2023-01-16T04:56:27;4.70;62.80
4312;DHT22;2169;49.086;9.284;2023-01-16T04:58:54;4.70;62.80
4312;DHT22;2169;49.086;9.284;2023-01-16T05:01:21;4.70;62.70
4312;DHT22;2169;49.086;9.284;2023-01-16T05:03:48;4.70;62.70
4312;DHT22;2169;49.086;9.284;2023-01-16T05:06:15;4.70;62.70
4312;DHT22;2169;49.086;9.284;2023-01-16T05:08:42;4.70;62.70
4312;DHT22;2169;49.086;9.284;2023-01-16T05:11:10;4.70;62.70
4312;DHT22;2169;49.086;9.284;2023-01-16T05:13:37;4.80;62.60
4312;DHT22;2169;49.086;9.284;2023-01-16T05:16:04;4.70;62.60
4312;DHT22;2169;49.086;9.284;2023-01-16T05:18:31;4.60;62.50
4312;DHT22;2169;49.086;9.284;2023-01-16T05:20:58;4.60;62.50
4312;DHT22;2169;49.086;9.284;2023-01-16T05:23:25;4.60;62.50
4312;DHT22;2169;49.086;9.284;2023-01-16T05:25:52;4.60;62.50
4312;DHT22;2169;49.086;9.284;2023-01-16T05:28:22;4.60;62.50
4312;DHT22;2169;49.086;9.284;2023-01-16T05:30:48;4.60;62.50
4312;DHT22;2169;49.086;9.284;2023-01-16T05:33:15;4.50;62.40
4312;DHT22;2169;49.086;9.284;2023-01-16T05:35:42;4.50;62.40
4312;DHT22;2169;49.086;9.284;2023-01-16T05:38:09;4.50;62.40
4312;DHT22;2169;49.086;9.284;2023-01-16T05:40:35;4.40;62.30
4312;DHT22;2169;49.086;9.284;2023-01-16T05:43:02;4.40;62.30
4312;DHT22;2169;49.086;9.284;2023-01-16T05:45:30;4.40;62.40
4312;DHT22;2169;49.086;9.284;2023-01-16T05:47:58;4.40;62.40
4312;DHT22;2169;49.086;9.284;2023-01-16T05:50:24;4.40;62.50
4312;DHT22;2169;49.086;9.284;2023-01-16T05:52:51;4.40;62.50
4312;DHT22;2169;49.086;9.284;2023-01-16T05:55:18;4.40;62.40
4312;DHT22;2169;49.086;9.284;2023-01-16T05:57:45;4.40;62.40
4312;DHT22;2169;49.086;9.284;2023-01-16T06:00:12;4.40;62.40
4312;DHT22;2169;49.086;9.284;2023-01-16T06:02:40;4.40;62.40
4312;DHT22;2169;49.086;9.284;2023-01-16T06:05:08;4.40;62.40
4312;DHT22;2169;49.086;9.284;2023-01-16T06:07:35;4.40;63.00
4312;DHT22;2169;49.086;9.284;2023-01-16T06:10:02;4.40;62.30
4312;DHT22;2169;49.086;9.284;2023-01-16T06:12:29;4.30;62.20
4312;DHT22;2169;49.086;9.284;2023-01-16T06:14:57;4.40;62.30
4312;DHT22;2169;49.086;9.284;2023-01-16T06:17:24;4.40;62.30
4312;DHT22;2169;49.086;9.284;2023-01-16T06:19:52;4.40;62.30
4312;DHT22;2169;49.086;9.284;2023-01-16T06:22:19;4.40;62.30
4312;DHT22;2169;49.086;9.284;2023-01-16T06:24:45;4.40;62.30
4312;DHT22;2169;49.086;9.284;2023-01-16T06:27:12;4.30;62.20
4312;DHT22;2169;49.086;9.284;2023-01-16T06:29:39;4.40;62.20
4312;DHT22;2169;49.086;9.284;2023-01-16T06:32:07;4.40;62.20
4312;DHT22;2169;49.086;9.284;2023-01-16T06:34:33;4.40;62.20
4312;DHT22;2169;49.086;9.284;2023-01-16T06:37:01;4.40;62.20
4312;DHT22;2169;49.086;9.284;2023-01-16T06:39:28;4.40;62.20
4312;DHT22;2169;49.086;9.284;2023-01-16T06:41:55;4.40;62.10
4312;DHT22;2169;49.086;9.284;2023-01-16T06:44:22;4.40;62.10
4312;DHT22;2169;49.086;9.284;2023-01-16T06:46:48;4.40;62.00
4312;DHT22;2169;49.086;9.284;2023-01-16T06:49:15;4.40;62.00
4312;DHT22;2169;49.086;9.284;2023-01-16T06:51:42;4.40;61.90
4312;DHT22;2169;49.086;9.284;2023-01-16T06:54:11;4.50;62.00
4312;DHT22;2169;49.086;9.284;2023-01-16T06:56:37;4.50;62.00
4312;DHT22;2169;49.086;9.284;2023-01-16T06:59:04;4.50;62.00
4312;DHT22;2169;49.086;9.284;2023-01-16T07:01:31;4.50;61.90
4312;DHT22;2169;49.086;9.284;2023-01-16T07:03:57;4.50;61.90
4312;DHT22;2169;49.086;9.284;2023-01-16T07:06:24;4.50;61.90
4312;DHT22;2169;49.086;9.284;2023-01-16T07:08:51;4.50;61.80
4312;DHT22;2169;49.086;9.284;2023-01-16T07:11:20;4.50;61.80
4312;DHT22;2169;49.086;9.284;2023-01-16T07:13:47;4.50;61.80
4312;DHT22;2169;49.086;9.284;2023-01-16T07:16:14;4.50;61.70
4312;DHT22;2169;49.086;9.284;2023-01-16T07:18:59;4.50;61.70
4312;DHT22;2169;49.086;9.284;2023-01-16T07:21:45;4.50;61.70
4312;DHT22;2169;49.086;9.284;2023-01-16T07:24:32;4.50;61.70
4312;DHT22;2169;49.086;9.284;2023-01-16T07:27:04;4.50;61.70
4312;DHT22;2169;49.086;9.284;2023-01-16T07:29:34;4.50;61.60
4312;DHT22;2169;49.086;9.284;2023-01-16T07:32:02;4.50;61.60
4312;DHT22;2169;49.086;9.284;2023-01-16T07:34:29;4.50;61.60
4312;DHT22;2169;49.086;9.284;2023-01-16T07:36:56;4.50;61.60
4312;DHT22;2169;49.086;9.284;2023-01-16T07:39:23;4.60;61.60
4312;DHT22;2169;49.086;9.284;2023-01-16T07:41:50;4.60;61.60
4312;DHT22;2169;49.086;9.284;2023-01-16T07:44:18;4.60;61.60
4312;DHT22;2169;49.086;9.284;2023-01-16T07:46:45;4.60;61.60
4312;DHT22;2169;49.086;9.284;2023-01-16T07:49:12;4.60;61.50
4312;DHT22;2169;49.086;9.284;2023-01-16T07:51:38;4.60;61.50
4312;DHT22;2169;49.086;9.284;2023-01-16T07:54:05;4.60;61.40
4312;DHT22;2169;49.086;9.284;2023-01-16T07:56:33;4.60;61.40
4312;DHT22;2169;49.086;9.284;2023-01-16T07:59:00;4.60;61.40
4312;DHT22;2169;49.086;9.284;2023-01-16T08:01:28;4.60;61.30
4312;DHT22;2169;49.086;9.284;2023-01-16T08:03:55;4.60;61.30
4312;DHT22;2169;49.086;9.284;2023-01-16T08:06:21;4.60;61.20
4312;DHT22;2169;49.086;9.284;2023-01-16T08:08:48;4.60;61.20
4312;DHT22;2169;49.086;9.284;2023-01-16T08:11:15;4.60;61.20
4312;DHT22;2169;49.086;9.284;2023-01-16T08:13:59;4.60;61.20
4312;DHT22;2169;49.086;9.284;2023-01-16T08:16:27;4.70;61.20
4312;DHT22;2169;49.086;9.284;2023-01-16T08:18:54;4.70;61.20
4312;DHT22;2169;49.086;9.284;2023-01-16T08:21:22;4.70;61.10
4312;DHT22;2169;49.086;9.284;2023-01-16T08:23:49;4.70;61.00
4312;DHT22;2169;49.086;9.284;2023-01-16T08:26:16;4.70;61.00
4312;DHT22;2169;49.086;9.284;2023-01-16T08:28:42;4.70;60.90
4312;DHT22;2169;49.086;9.284;2023-01-16T08:31:10;4.70;60.90
4312;DHT22;2169;49.086;9.284;2023-01-16T08:33:41;4.80;60.90
4312;DHT22;2169;49.086;9.284;2023-01-16T08:36:10;4.80;60.90
4312;DHT22;2169;49.086;9.284;2023-01-16T08:38:37;4.80;60.80
4312;DHT22;2169;49.086;9.284;2023-01-16T08:41:04;4.80;60.70
4312;DHT22;2169;49.086;9.284;2023-01-16T08:43:51;4.80;60.80
4312;DHT22;2169;49.086;9.284;2023-01-16T08:46:35;4.80;60.70
4312;DHT22;2169;49.086;9.284;2023-01-16T08:49:21;4.90;60.70
4312;DHT22;2169;49.086;9.284;2023-01-16T08:52:06;4.80;60.60
4312;DHT22;2169;49.086;9.284;2023-01-16T08:54:33;4.90;60.60
4312;DHT22;2169;49.086;9.284;2023-01-16T08:57:00;4.90;60.60
4312;DHT22;2169;49.086;9.284;2023-01-16T08:59:26;4.90;60.50
4312;DHT22;2169;49.086;9.284;2023-01-16T09:01:59;4.90;60.30
4312;DHT22;2169;49.086;9.284;2023-01-16T09:04:27;5.00;60.30
4312;DHT22;2169;49.086;9.284;2023-01-16T09:06:54;5.00;60.30
4312;DHT22;2169;49.086;9.284;2023-01-16T09:09:20;5.00;60.20
4312;DHT22;2169;49.086;9.284;2023-01-16T09:11:54;5.10;60.10
4312;DHT22;2169;49.086;9.284;2023-01-16T09:14:38;5.10;60.10
4312;DHT22;2169;49.086;9.284;2023-01-16T09:17:05;5.10;60.00
4312;DHT22;2169;49.086;9.284;2023-01-16T09:19:34;5.10;60.00
4312;DHT22;2169;49.086;9.284;2023-01-16T09:22:01;5.20;60.00
4312;DHT22;2169;49.086;9.284;2023-01-16T09:24:31;5.20;59.90
4312;DHT22;2169;49.086;9.284;2023-01-16T09:26:58;5.20;59.80
4312;DHT22;2169;49.086;9.284;2023-01-16T09:29:24;5.20;59.80
4312;DHT22;2169;49.086;9.284;2023-01-16T09:31:52;5.30;59.70
4312;DHT22;2169;49.086;9.284;2023-01-16T09:34:18;5.30;60.40
4312;DHT22;2169;49.086;9.284;2023-01-16T09:36:47;5.30;59.60
4312;DHT22;2169;49.086;9.284;2023-01-16T09:39:13;5.30;59.50
4312;DHT22;2169;49.086;9.284;2023-01-16T09:42:04;5.30;59.40
4312;DHT22;2169;49.086;9.284;2023-01-16T09:44:51;5.30;59.30
4312;DHT22;2169;49.086;9.284;2023-01-16T09:47:22;5.30;59.20
4312;DHT22;2169;49.086;9.284;2023-01-16T09:49:52;5.30;59.10
4312;DHT22;2169;49.086;9.284;2023-01-16T09:52:27;5.30;59.20
4312;DHT22;2169;49.086;9.284;2023-01-16T09:55:16;5.30;59.40
4312;DHT22;2169;49.086;9.284;2023-01-16T09:58:04;5.30;59.60
4312;DHT22;2169;49.086;9.284;2023-01-16T10:00:50;5.30;59.80
4312;DHT22;2169;49.086;9.284;2023-01-16T10:03:17;5.30;59.90
4312;DHT22;2169;49.086;9.284;2023-01-16T10:05:48;5.30;59.90
4312;DHT22;2169;49.086;9.284;2023-01-16T10:08:22;5.40;60.00
4312;DHT22;2169;49.086;9.284;2023-01-16T10:10:57;5.40;59.90
4312;DHT22;2169;49.086;9.284;2023-01-16T10:13:49;5.40;60.00
4312;DHT22;2169;49.086;9.284;2023-01-16T10:16:22;5.40;60.00
4312;DHT22;2169;49.086;9.284;2023-01-16T10:18:55;5.50;60.10
4312;DHT22;2169;49.086;9.284;2023-01-16T10:24:28;5.50;60.00
4312;DHT22;2169;49.086;9.284;2023-01-16T10:27:04;5.50;59.90
4312;DHT22;2169;49.086;9.284;2023-01-16T10:29:38;5.60;59.90
4312;DHT22;2169;49.086;9.284;2023-01-16T10:32:11;5.60;59.70
4312;DHT22;2169;49.086;9.284;2023-01-16T10:34:43;5.60;59.60
4312;DHT22;2169;49.086;9.284;2023-01-16T10:37:13;5.60;59.50
4312;DHT22;2169;49.086;9.284;2023-01-16T10:39:41;5.60;59.40
4312;DHT22;2169;49.086;9.284;2023-01-16T10:42:12;5.70;59.40
4312;DHT22;2169;49.086;9.284;2023-01-16T10:45:00;5.70;59.20
4312;DHT22;2169;49.086;9.284;2023-01-16T10:47:52;5.70;59.00
4312;DHT22;2169;49.086;9.284;2023-01-16T10:50:37;5.80;58.90
4312;DHT22;2169;49.086;9.284;2023-01-16T10:53:05;5.80;58.80
4312;DHT22;2169;49.086;9.284;2023-01-16T10:55:35;5.80;58.60
4312;DHT22;2169;49.086;9.284;2023-01-16T10:58:05;5.90;58.50
4312;DHT22;2169;49.086;9.284;2023-01-16T11:00:34;5.90;58.50
4312;DHT22;2169;49.086;9.284;2023-01-16T11:03:08;5.90;58.40
4312;DHT22;2169;49.086;9.284;2023-01-16T11:05:36;5.90;58.20
4312;DHT22;2169;49.086;9.284;2023-01-16T11:08:06;6.00;58.20
4312;DHT22;2169;49.086;9.284;2023-01-16T11:10:34;6.00;58.10
4312;DHT22;2169;49.086;9.284;2023-01-16T11:13:01;6.00;57.90
4312;DHT22;2169;49.086;9.284;2023-01-16T11:16:00;6.00;57.50
4312;DHT22;2169;49.086;9.284;2023-01-16T11:18:47;6.10;57.00
4312;DHT22;2169;49.086;9.284;2023-01-16T11:21:16;6.10;56.80
4312;DHT22;2169;49.086;9.284;2023-01-16T11:23:47;6.10;56.70
4312;DHT22;2169;49.086;9.284;2023-01-16T11:26:16;6.20;56.70
4312;DHT22;2169;49.086;9.284;2023-01-16T11:28:46;6.20;56.60
4312;DHT22;2169;49.086;9.284;2023-01-16T11:31:18;6.20;56.50
4312;DHT22;2169;49.086;9.284;2023-01-16T11:33:47;6.20;56.70
4312;DHT22;2169;49.086;9.284;2023-01-16T11:36:20;6.30;56.80
4312;DHT22;2169;49.086;9.284;2023-01-16T11:38:48;6.30;57.00
4312;DHT22;2169;49.086;9.284;2023-01-16T11:41:19;6.30;57.10
4312;DHT22;2169;49.086;9.284;2023-01-16T11:43:53;6.30;57.30
4312;DHT22;2169;49.086;9.284;2023-01-16T11:46:49;6.30;57.50
4312;DHT22;2169;49.086;9.284;2023-01-16T11:49:18;6.30;57.40
4312;DHT22;2169;49.086;9.284;2023-01-16T11:51:49;6.40;57.60
4312;DHT22;2169;49.086;9.284;2023-01-16T11:54:19;6.40;57.70
4312;DHT22;2169;49.086;9.284;2023-01-16T11:57:10;6.40;57.80
4312;DHT22;2169;49.086;9.284;2023-01-16T11:59:57;6.40;58.00
4312;DHT22;2169;49.086;9.284;2023-01-16T12:05:52;6.40;58.20
4312;DHT22;2169;49.086;9.284;2023-01-16T12:08:46;6.40;58.30
4312;DHT22;2169;49.086;9.284;2023-01-16T12:11:26;6.40;58.30
4312;DHT22;2169;49.086;9.284;2023-01-16T12:14:00;6.50;58.30
4312;DHT22;2169;49.086;9.284;2023-01-16T12:17:01;6.50;58.20
4312;DHT22;2169;49.086;9.284;2023-01-16T12:19:52;6.50;58.20
4312;DHT22;2169;49.086;9.284;2023-01-16T12:22:32;6.50;58.20
4312;DHT22;2169;49.086;9.284;2023-01-16T12:25:08;6.60;58.20
4312;DHT22;2169;49.086;9.284;2023-01-16T12:27:45;6.60;58.30
4312;DHT22;2169;49.086;9.284;2023-01-16T12:30:35;6.60;58.20
4312;DHT22;2169;49.086;9.284;2023-01-16T12:33:09;6.60;58.20
4312;DHT22;2169;49.086;9.284;2023-01-16T12:35:47;6.60;58.20
4312;DHT22;2169;49.086;9.284;2023-01-16T12:38:18;6.70;58.30
4312;DHT22;2169;49.086;9.284;2023-01-16T12:44:16;6.70;58.30
4312;DHT22;2169;49.086;9.284;2023-01-16T12:46:54;6.70;58.30
4312;DHT22;2169;49.086;9.284;2023-01-16T12:49:39;6.70;58.40
4312;DHT22;2169;49.086;9.284;2023-01-16T12:52:21;6.70;58.40
4312;DHT22;2169;49.086;9.284;2023-01-16T12:55:04;6.80;58.60
4312;DHT22;2169;49.086;9.284;2023-01-16T12:57:46;6.80;58.60
4312;DHT22;2169;49.086;9.284;2023-01-16T13:00:18;6.80;58.70
4312;DHT22;2169;49.086;9.284;2023-01-16T13:02:53;6.80;58.70
4312;DHT22;2169;49.086;9.284;2023-01-16T13:05:25;6.80;58.80
4312;DHT22;2169;49.086;9.284;2023-01-16T13:07:56;6.80;58.80
4312;DHT22;2169;49.086;9.284;2023-01-16T13:10:28;6.80;58.90
4312;DHT22;2169;49.086;9.284;2023-01-16T13:13:15;6.90;59.00
4312;DHT22;2169;49.086;9.284;2023-01-16T13:15:57;6.90;59.00
4312;DHT22;2169;49.086;9.284;2023-01-16T13:18:27;6.90;59.00
4312;DHT22;2169;49.086;9.284;2023-01-16T13:20:58;7.00;59.20
4312;DHT22;2169;49.086;9.284;2023-01-16T13:23:30;7.00;59.20
4312;DHT22;2169;49.086;9.284;2023-01-16T13:26:00;7.00;59.10
4312;DHT22;2169;49.086;9.284;2023-01-16T13:28:36;7.00;59.20
4312;DHT22;2169;49.086;9.284;2023-01-16T13:31:13;7.10;59.30
4312;DHT22;2169;49.086;9.284;2023-01-16T13:33:46;7.10;59.30
4312;DHT22;2169;49.086;9.284;2023-01-16T13:39:45;7.10;59.30
4312;DHT22;2169;49.086;9.284;2023-01-16T13:42:17;7.20;59.40
4312;DHT22;2169;49.086;9.284;2023-01-16T13:44:49;7.20;59.40
4312;DHT22;2169;49.086;9.284;2023-01-16T13:47:37;7.20;59.50
4312;DHT22;2169;49.086;9.284;2023-01-16T13:50:17;7.30;59.50
4312;DHT22;2169;49.086;9.284;2023-01-16T13:52:45;7.30;59.50
4312;DHT22;2169;49.086;9.284;2023-01-16T13:55:24;7.30;59.40
4312;DHT22;2169;49.086;9.284;2023-01-16T13:57:55;7.40;59.50
4312;DHT22;2169;49.086;9.284;2023-01-16T14:00:23;7.40;59.30
4312;DHT22;2169;49.086;9.284;2023-01-16T14:03:02;7.40;59.30
4312;DHT22;2169;49.086;9.284;2023-01-16T14:05:47;7.40;59.30
4312;DHT22;2169;49.086;9.284;2023-01-16T14:11:36;7.50;59.30
4312;DHT22;2169;49.086;9.284;2023-01-16T14:14:29;7.50;59.30
4312;DHT22;2169;49.086;9.284;2023-01-16T14:17:15;7.50;59.30
4312;DHT22;2169;49.086;9.284;2023-01-16T14:19:51;7.50;59.40
4312;DHT22;2169;49.086;9.284;2023-01-16T14:22:22;7.50;59.30
4312;DHT22;2169;49.086;9.284;2023-01-16T14:25:15;7.50;59.20
4312;DHT22;2169;49.086;9.284;2023-01-16T14:27:48;7.50;59.20
4312;DHT22;2169;49.086;9.284;2023-01-16T14:30:17;7.60;59.40
4312;DHT22;2169;49.086;9.284;2023-01-16T14:32:46;7.60;59.30
4312;DHT22;2169;49.086;9.284;2023-01-16T14:35:16;7.60;59.30
4312;DHT22;2169;49.086;9.284;2023-01-16T14:37:54;7.60;59.10
4312;DHT22;2169;49.086;9.284;2023-01-16T14:40:23;7.60;58.60
4312;DHT22;2169;49.086;9.284;2023-01-16T14:43:14;7.60;58.50
4312;DHT22;2169;49.086;9.284;2023-01-16T14:46:31;7.70;58.30
4312;DHT22;2169;49.086;9.284;2023-01-16T14:49:38;7.70;58.00
4312;DHT22;2169;49.086;9.284;2023-01-16T14:52:47;7.70;57.70
4312;DHT22;2169;49.086;9.284;2023-01-16T14:55:42;7.70;57.70
4312;DHT22;2169;49.086;9.284;2023-01-16T14:58:12;7.70;57.60
4312;DHT22;2169;49.086;9.284;2023-01-16T15:00:41;7.70;57.60
4312;DHT22;2169;49.086;9.284;2023-01-16T15:03:12;7.70;57.60
4312;DHT22;2169;49.086;9.284;2023-01-16T15:05:44;7.70;57.60
4312;DHT22;2169;49.086;9.284;2023-01-16T15:08:22;7.80;57.60
4312;DHT22;2169;49.086;9.284;2023-01-16T15:10:51;7.80;57.50
4312;DHT22;2169;49.086;9.284;2023-01-16T15:13:22;7.80;57.50
4312;DHT22;2169;49.086;9.284;2023-01-16T15:15:50;7.80;57.60
4312;DHT22;2169;49.086;9.284;2023-01-16T15:18:18;7.70;57.60
4312;DHT22;2169;49.086;9.284;2023-01-16T15:21:03;7.70;57.60
4312;DHT22;2169;49.086;9.284;2023-01-16T15:24:01;7.70;57.60
4312;DHT22;2169;49.086;9.284;2023-01-16T15:26:40;7.70;57.70
4312;DHT22;2169;49.086;9.284;2023-01-16T15:29:26;7.70;57.70
4312;DHT22;2169;49.086;9.284;2023-01-16T15:31:58;7.70;57.80
4312;DHT22;2169;49.086;9.284;2023-01-16T15:34:28;7.70;57.70
4312;DHT22;2169;49.086;9.284;2023-01-16T15:36:57;7.70;57.80
4312;DHT22;2169;49.086;9.284;2023-01-16T15:39:31;7.60;57.80
4312;DHT22;2169;49.086;9.284;2023-01-16T15:42:01;7.70;57.90
4312;DHT22;2169;49.086;9.284;2023-01-16T15:44:46;7.70;57.90
4312;DHT22;2169;49.086;9.284;2023-01-16T15:47:56;7.70;57.90
4312;DHT22;2169;49.086;9.284;2023-01-16T15:50:44;7.70;57.90
4312;DHT22;2169;49.086;9.284;2023-01-16T15:53:13;7.70;57.90
4312;DHT22;2169;49.086;9.284;2023-01-16T15:55:45;7.60;57.70
4312;DHT22;2169;49.086;9.284;2023-01-16T15:58:15;7.60;57.60
4312;DHT22;2169;49.086;9.284;2023-01-16T16:00:43;7.60;57.60
4312;DHT22;2169;49.086;9.284;2023-01-16T16:03:13;7.60;57.50
4312;DHT22;2169;49.086;9.284;2023-01-16T16:05:47;7.60;57.50
4312;DHT22;2169;49.086;9.284;2023-01-16T16:08:18;7.60;57.50
4312;DHT22;2169;49.086;9.284;2023-01-16T16:10:47;7.60;57.60
4312;DHT22;2169;49.086;9.284;2023-01-16T16:13:33;7.60;57.60
4312;DHT22;2169;49.086;9.284;2023-01-16T16:16:02;7.60;57.70
4312;DHT22;2169;49.086;9.284;2023-01-16T16:18:53;7.60;57.80
4312;DHT22;2169;49.086;9.284;2023-01-16T16:21:21;7.60;57.90
4312;DHT22;2169;49.086;9.284;2023-01-16T16:23:58;7.60;58.00
4312;DHT22;2169;49.086;9.284;2023-01-16T16:26:29;7.60;58.10
4312;DHT22;2169;49.086;9.284;2023-01-16T16:29:00;7.60;58.30
4312;DHT22;2169;49.086;9.284;2023-01-16T16:31:29;7.60;58.40
4312;DHT22;2169;49.086;9.284;2023-01-16T16:33:59;7.50;58.60
4312;DHT22;2169;49.086;9.284;2023-01-16T16:36:28;7.50;58.80
4312;DHT22;2169;49.086;9.284;2023-01-16T16:38:55;7.50;59.10
4312;DHT22;2169;49.086;9.284;2023-01-16T16:41:43;7.40;59.40
4312;DHT22;2169;49.086;9.284;2023-01-16T16:44:40;7.40;59.70
4312;DHT22;2169;49.086;9.284;2023-01-16T16:47:23;7.40;60.00
4312;DHT22;2169;49.086;9.284;2023-01-16T16:49:51;7.40;60.30
4312;DHT22;2169;49.086;9.284;2023-01-16T16:52:22;7.30;60.50
4312;DHT22;2169;49.086;9.284;2023-01-16T16:54:53;7.30;60.80
4312;DHT22;2169;49.086;9.284;2023-01-16T16:57:22;7.30;61.10
4312;DHT22;2169;49.086;9.284;2023-01-16T16:59:51;7.20;61.40
4312;DHT22;2169;49.086;9.284;2023-01-16T17:02:18;7.20;61.70
4312;DHT22;2169;49.086;9.284;2023-01-16T17:04:46;7.10;61.90
4312;DHT22;2169;49.086;9.284;2023-01-16T17:07:12;7.10;62.10
4312;DHT22;2169;49.086;9.284;2023-01-16T17:09:39;7.00;62.20
4312;DHT22;2169;49.086;9.284;2023-01-16T17:12:14;7.00;62.40
4312;DHT22;2169;49.086;9.284;2023-01-16T17:14:42;7.00;62.70